createdAt,value
2019-05-12T00:00:32.745Z,10.2
2019-05-12T00:01:34.340Z,9.9
2019-05-12T00:02:36.203Z,10.1
2019-05-12T00:03:41.025Z,10
2019-05-12T00:04:42.891Z,9.7
2019-05-12T00:05:44.772Z,9.8
2019-05-12T00:06:48.889Z,9.5
2019-05-12T00:07:50.757Z,10.1
2019-05-12T00:08:52.627Z,10.1
2019-05-12T00:09:54.220Z,9.9
2019-05-12T00:10:57.781Z,10.2
2019-05-12T00:12:00.251Z,9.7
2019-05-12T00:13:02.119Z,9.6
2019-05-12T00:14:03.988Z,10.1
2019-05-12T00:15:07.621Z,9.9
2019-05-12T00:16:09.893Z,9.6
2019-05-12T00:17:11.763Z,10.1
2019-05-12T00:18:13.356Z,9.8
2019-05-12T00:19:14.658Z,10.1
2019-05-12T00:20:19.171Z,9.6
2019-05-12T00:21:21.037Z,9.4
2019-05-12T00:22:22.904Z,9.8
2019-05-12T00:23:31.661Z,9.5
2019-05-12T00:24:33.529Z,9.8
2019-05-12T00:25:35.408Z,9.7
2019-05-12T00:26:39.284Z,9.8
2019-05-12T00:27:41.145Z,9.7
2019-05-12T00:28:43.012Z,9.5
2019-05-12T00:29:44.880Z,10
2019-05-12T00:30:49.174Z,9.9
2019-05-12T00:31:51.043Z,9.8
2019-05-12T00:32:52.921Z,9.9
2019-05-12T00:33:54.789Z,10
2019-05-12T00:34:58.446Z,10.3
2019-05-12T00:36:00.359Z,10.1
2019-05-12T00:37:01.953Z,9.3
2019-05-12T00:38:03.817Z,9.4
2019-05-12T00:39:05.682Z,9.7
2019-05-12T00:40:09.967Z,9.4
2019-05-12T00:41:11.834Z,10.4
2019-05-12T00:42:13.700Z,9.7
2019-05-12T00:43:15.325Z,9.8
2019-05-12T00:44:19.422Z,9.8
2019-05-12T00:45:21.289Z,10.2
2019-05-12T00:46:23.166Z,10.2
2019-05-12T00:47:25.035Z,10
2019-05-12T00:48:29.325Z,10.2
2019-05-12T00:49:31.193Z,10
2019-05-12T00:50:33.060Z,10.5
2019-05-12T00:51:34.928Z,10.5
2019-05-12T00:52:39.408Z,10
2019-05-12T00:53:44.423Z,10.4
2019-05-12T00:54:48.798Z,10.8
2019-05-12T00:55:50.681Z,10.3
2019-05-12T00:56:52.541Z,9.9
2019-05-12T00:57:54.120Z,9.8
2019-05-12T00:58:57.899Z,9.8
2019-05-12T00:59:59.858Z,10.3
2019-05-12T01:01:01.448Z,10.5
2019-05-12T01:02:02.763Z,9.9
2019-05-12T01:03:04.631Z,9.8
2019-05-12T01:04:09.260Z,10.4
2019-05-12T01:05:11.127Z,10.1
2019-05-12T01:06:12.996Z,10.4
2019-05-12T01:07:14.863Z,10.6
2019-05-12T01:08:19.152Z,10.4
2019-05-12T01:09:21.022Z,10.7
2019-05-12T01:10:22.891Z,10.7
2019-05-12T01:11:24.754Z,10.6
2019-05-12T01:12:28.489Z,10.2
2019-05-12T01:13:30.169Z,10.3
2019-05-12T01:14:32.030Z,10.7
2019-05-12T01:15:33.897Z,10.9
2019-05-12T01:16:38.219Z,11
2019-05-12T01:17:41.512Z,10.8
2019-05-12T01:18:43.388Z,11.4
2019-05-12T01:19:45.254Z,11.3
2019-05-12T01:20:48.949Z,11.4
2019-05-12T01:21:50.813Z,11.5
2019-05-12T01:22:52.679Z,11.5
2019-05-12T01:24:03.641Z,10.8
2019-05-12T01:25:05.525Z,11.6
2019-05-12T01:26:09.892Z,10.8
2019-05-12T01:27:11.756Z,10.6
2019-05-12T01:28:13.622Z,10.9
2019-05-12T01:29:17.487Z,11.1
2019-05-12T01:30:19.527Z,11.3
2019-05-12T01:31:21.393Z,11.9
2019-05-12T01:32:23.260Z,11
2019-05-12T01:33:27.507Z,11.3
2019-05-12T01:34:29.455Z,11.1
2019-05-12T01:35:31.337Z,10.5
2019-05-12T01:36:33.234Z,11.1
2019-05-12T01:37:35.078Z,11.6
2019-05-12T01:38:38.680Z,11.2
2019-05-12T01:39:40.545Z,11.5
2019-05-12T01:40:42.410Z,11.1
2019-05-12T01:41:43.997Z,11.3
2019-05-12T01:42:45.577Z,11.3
2019-05-12T01:43:49.818Z,11.6
2019-05-12T01:44:51.686Z,11.2
2019-05-12T01:45:53.554Z,11.3
2019-05-12T01:46:57.329Z,11.8
2019-05-12T01:48:00.420Z,11.4
2019-05-12T01:49:01.722Z,11.9
2019-05-12T01:50:03.587Z,11
2019-05-12T01:51:05.454Z,12
2019-05-12T01:52:09.635Z,12
2019-05-12T01:53:11.503Z,11.4
2019-05-12T01:54:18.590Z,12.3
2019-05-12T01:55:20.714Z,11.8
2019-05-12T01:56:22.593Z,11.3
2019-05-12T01:57:24.450Z,11.1
2019-05-12T01:58:28.252Z,10.9
2019-05-12T01:59:30.115Z,11.6
2019-05-12T02:00:31.983Z,11.6
2019-05-12T02:01:33.578Z,11
2019-05-12T02:02:35.445Z,11.8
2019-05-12T02:03:38.711Z,11.5
2019-05-12T02:04:40.575Z,11.7
2019-05-12T02:05:42.444Z,11.6
2019-05-12T02:06:44.310Z,12.1
2019-05-12T02:07:48.844Z,11.6
2019-05-12T02:08:50.708Z,12.1
2019-05-12T02:09:52.576Z,12
2019-05-12T02:10:54.450Z,11.6
2019-05-12T02:11:58.711Z,12.8
2019-05-12T02:13:00.677Z,11.7
2019-05-12T02:14:02.544Z,11.8
2019-05-12T02:15:04.411Z,12.5
2019-05-12T02:16:08.738Z,11.7
2019-05-12T02:17:10.605Z,12.8
2019-05-12T02:18:12.470Z,11.8
2019-05-12T02:19:14.339Z,11.9
2019-05-12T02:20:18.581Z,11.7
2019-05-12T02:21:20.461Z,11.8
2019-05-12T02:22:22.330Z,12.4
2019-05-12T02:23:24.196Z,12.1
2019-05-12T02:24:31.183Z,12.1
2019-05-12T02:25:33.050Z,12.6
2019-05-12T02:26:34.640Z,12.7
2019-05-12T02:27:38.785Z,12.1
2019-05-12T02:28:40.654Z,12.5
2019-05-12T02:29:42.519Z,12.2
2019-05-12T02:30:44.385Z,12.3
2019-05-12T02:31:49.771Z,12.5
2019-05-12T02:33:00.143Z,12.7
2019-05-12T02:34:05.439Z,12.4
2019-05-12T02:35:07.245Z,12.2
2019-05-12T02:36:09.105Z,12.1
2019-05-12T02:37:10.698Z,12.5
2019-05-12T02:38:15.469Z,12
2019-05-12T02:39:17.353Z,12.8
2019-05-12T02:40:19.223Z,12.1
2019-05-12T02:41:20.827Z,12.6
2019-05-12T02:42:25.497Z,12.3
2019-05-12T02:43:27.363Z,13
2019-05-12T02:44:29.231Z,12.3
2019-05-12T02:45:31.099Z,12.6
2019-05-12T02:46:35.967Z,12.5
2019-05-12T02:47:37.762Z,12.8
2019-05-12T02:48:39.820Z,12.8
2019-05-12T02:49:44.647Z,12.6
2019-05-12T02:50:46.470Z,13.5
2019-05-12T02:51:48.052Z,12.9
2019-05-12T02:52:49.638Z,12.4
2019-05-12T02:53:54.294Z,12.7
2019-05-12T02:55:06.318Z,12.6
2019-05-12T02:56:08.354Z,12.7
2019-05-12T02:57:10.219Z,13.5
2019-05-12T02:58:15.556Z,13
2019-05-12T02:59:17.569Z,12.7
2019-05-12T03:00:19.435Z,12.9
2019-05-12T03:01:24.768Z,13.4
2019-05-12T03:02:26.636Z,13.4
2019-05-12T03:03:28.504Z,13.1
2019-05-12T03:04:30.376Z,13.1
2019-05-12T03:05:35.529Z,13
2019-05-12T03:06:37.450Z,13.3
2019-05-12T03:07:39.291Z,13
2019-05-12T03:08:41.155Z,12.9
2019-05-12T03:09:46.213Z,13
2019-05-12T03:10:47.805Z,12.6
2019-05-12T03:11:49.671Z,12.8
2019-05-12T03:12:54.599Z,13
2019-05-12T03:13:56.492Z,13.4
2019-05-12T03:14:58.356Z,13.8
2019-05-12T03:16:00.223Z,13.6
2019-05-12T03:17:05.162Z,13.4
2019-05-12T03:18:08.200Z,14
2019-05-12T03:19:10.051Z,13.8
2019-05-12T03:20:14.929Z,13.8
2019-05-12T03:21:17.106Z,13.3
2019-05-12T03:22:18.970Z,13.1
2019-05-12T03:23:20.840Z,13.3
2019-05-12T03:24:26.328Z,13.4
2019-05-12T03:25:31.134Z,14.8
2019-05-12T03:26:36.727Z,14
2019-05-12T03:27:38.587Z,14.4
2019-05-12T03:28:40.451Z,14
2019-05-12T03:29:45.850Z,14.5
2019-05-12T03:30:49.849Z,14.2
2019-05-12T03:31:57.607Z,13.8
2019-05-12T03:32:59.800Z,14.6
2019-05-12T03:34:11.256Z,13.9
2019-05-12T03:35:20.369Z,14.7
2019-05-12T03:36:40.929Z,14.1
2019-05-12T03:37:51.359Z,15
2019-05-12T03:38:56.345Z,14.8
2019-05-12T03:39:58.208Z,15.2
2019-05-12T03:41:00.077Z,14.9
2019-05-12T03:42:04.682Z,14.9
2019-05-12T03:43:07.049Z,14.6
2019-05-12T03:44:08.903Z,15.9
2019-05-12T03:45:10.521Z,14.8
2019-05-12T03:46:15.622Z,15.3
2019-05-12T03:47:17.485Z,14.9
2019-05-12T03:48:19.349Z,14.6
2019-05-12T03:49:24.162Z,15.3
2019-05-12T03:50:26.237Z,15.4
2019-05-12T03:51:27.823Z,15.3
2019-05-12T03:52:29.685Z,14.9
2019-05-12T03:53:34.887Z,15.7
2019-05-12T03:54:36.821Z,15.1
2019-05-12T03:55:47.504Z,16.1
2019-05-12T03:56:49.426Z,16.1
2019-05-12T03:57:51.291Z,15.4
2019-05-12T03:58:56.462Z,15.7
2019-05-12T03:59:58.332Z,15.6
2019-05-12T04:00:59.912Z,15.7
2019-05-12T04:02:05.140Z,14.9
2019-05-12T04:03:07.236Z,15.2
2019-05-12T04:04:09.105Z,15.3
2019-05-12T04:05:10.967Z,15.7
2019-05-12T04:06:16.065Z,16
2019-05-12T04:07:17.933Z,16.9
2019-05-12T04:08:19.796Z,16.7
2019-05-12T04:09:25.040Z,16.7
2019-05-12T04:10:26.908Z,16.9
2019-05-12T04:11:28.773Z,16.6
2019-05-12T04:12:30.636Z,16.6
2019-05-12T04:13:35.945Z,16.3
2019-05-12T04:14:37.810Z,16.2
2019-05-12T04:15:39.672Z,15.8
2019-05-12T04:16:44.413Z,15.3
2019-05-12T04:17:46.723Z,15.4
2019-05-12T04:18:48.587Z,15.2
2019-05-12T04:19:50.172Z,15.3
2019-05-12T04:20:55.467Z,15.6
2019-05-12T04:21:57.338Z,16.3
2019-05-12T04:22:59.201Z,15.9
2019-05-12T04:24:01.062Z,15.9
2019-05-12T04:25:07.470Z,15
2019-05-12T04:26:17.655Z,15.6
2019-05-12T04:27:19.511Z,15.1
2019-05-12T04:28:25.015Z,15.6
2019-05-12T04:29:26.872Z,15.8
2019-05-12T04:30:28.741Z,15.8
2019-05-12T04:31:30.605Z,15.3
2019-05-12T04:32:36.117Z,15.7
2019-05-12T04:33:37.973Z,15.6
2019-05-12T04:34:39.834Z,15.6
2019-05-12T04:35:44.882Z,15.7
2019-05-12T04:36:46.992Z,16.5
2019-05-12T04:37:48.856Z,16.9
2019-05-12T04:38:50.723Z,15.3
2019-05-12T04:39:55.864Z,14.9
2019-05-12T04:40:57.452Z,15.7
2019-05-12T04:41:59.316Z,15
2019-05-12T04:43:01.188Z,16.1
2019-05-12T04:44:07.500Z,15.9
2019-05-12T04:45:09.366Z,16
2019-05-12T04:46:14.073Z,16.6
2019-05-12T04:47:16.396Z,15.5
2019-05-12T04:48:26.174Z,15.5
2019-05-12T04:49:28.029Z,15.8
2019-05-12T04:50:29.614Z,15.4
2019-05-12T04:51:34.527Z,15.9
2019-05-12T04:52:36.941Z,15
2019-05-12T04:53:38.817Z,15.4
2019-05-12T04:54:40.680Z,14.9
2019-05-12T04:56:04.475Z,14.8
2019-05-12T04:57:25.041Z,14.9
2019-05-12T04:58:27.261Z,14.8
2019-05-12T04:59:29.121Z,15.2
2019-05-12T05:00:34.288Z,15.5
2019-05-12T05:01:37.198Z,15.2
2019-05-12T05:02:38.800Z,15.2
2019-05-12T05:03:40.656Z,14.5
2019-05-12T05:04:45.654Z,15.9
2019-05-12T05:05:47.520Z,16.1
2019-05-12T05:06:49.385Z,13.8
2019-05-12T05:07:50.973Z,14.8
2019-05-12T05:08:55.512Z,14.7
2019-05-12T05:09:57.376Z,14.9
2019-05-12T05:10:59.251Z,14.9
2019-05-12T05:12:01.111Z,14.7
2019-05-12T05:13:06.694Z,14.8
2019-05-12T05:14:08.284Z,14.2
2019-05-12T05:15:10.152Z,14.6
2019-05-12T05:16:14.991Z,15.3
2019-05-12T05:17:16.857Z,13.5
2019-05-12T05:18:18.722Z,14
2019-05-12T05:19:20.586Z,14.4
2019-05-12T05:20:24.881Z,14.8
2019-05-12T05:21:26.745Z,15.2
2019-05-12T05:22:28.611Z,14.6
2019-05-12T05:23:30.476Z,13.8
2019-05-12T05:24:34.834Z,14.1
2019-05-12T05:25:36.726Z,14.2
2019-05-12T05:26:38.587Z,14.4
2019-05-12T05:27:40.450Z,14.5
2019-05-12T05:28:44.506Z,14
2019-05-12T05:29:46.086Z,14.8
2019-05-12T05:30:47.950Z,15
2019-05-12T05:31:49.816Z,14.8
2019-05-12T05:32:53.381Z,14.6
2019-05-12T05:33:54.845Z,13.9
2019-05-12T05:34:58.835Z,14
2019-05-12T05:36:00.424Z,14.2
2019-05-12T05:37:02.689Z,14.2
2019-05-12T05:38:10.699Z,14.1
2019-05-12T05:39:20.983Z,13.8
2019-05-12T05:40:31.150Z,13.9
2019-05-12T05:41:40.038Z,14.1
2019-05-12T05:42:50.374Z,14
2019-05-12T05:43:59.047Z,14.1
2019-05-12T05:45:00.905Z,14.1
2019-05-12T05:46:08.663Z,14.5
2019-05-12T05:47:10.533Z,14.1
2019-05-12T05:48:14.643Z,15
2019-05-12T05:49:16.504Z,14.7
2019-05-12T05:50:29.601Z,14.3
2019-05-12T05:51:33.904Z,14.3
2019-05-12T05:52:40.474Z,14.9
2019-05-12T05:53:49.739Z,13.8
2019-05-12T05:54:55.266Z,14.3
2019-05-12T05:56:00.863Z,14.2
2019-05-12T05:57:06.780Z,14.8
2019-05-12T05:58:11.031Z,14
2019-05-12T05:59:15.938Z,14.2
2019-05-12T06:00:34.078Z,14.2
2019-05-12T06:01:54.792Z,13.8
2019-05-12T06:02:56.513Z,13.8
2019-05-12T06:04:08.569Z,13.9
2019-05-12T06:05:10.337Z,14.5
2019-05-12T06:06:16.024Z,14.6
2019-05-12T06:07:17.626Z,13.8
2019-05-12T06:08:24.310Z,14.5
2019-05-12T06:09:26.180Z,14.2
2019-05-12T06:10:43.284Z,14.3
2019-05-12T06:11:45.044Z,14.3
2019-05-12T06:12:51.724Z,14
2019-05-12T06:13:55.591Z,14.1
2019-05-12T06:15:00.925Z,14.4
2019-05-12T06:16:05.247Z,14.3
2019-05-12T06:17:06.822Z,13.5
2019-05-12T06:18:08.690Z,14.3
2019-05-12T06:19:10.550Z,13.4
2019-05-12T06:20:14.504Z,13.9
2019-05-12T06:21:16.370Z,12.8
2019-05-12T06:22:19.431Z,13.1
2019-05-12T06:23:23.805Z,12.6
2019-05-12T06:24:30.513Z,13.4
2019-05-12T06:25:54.613Z,13.6
2019-05-12T06:27:20.432Z,13
2019-05-12T06:28:24.526Z,13.3
2019-05-12T06:29:26.392Z,13.4
2019-05-12T06:30:27.965Z,13.7
2019-05-12T06:31:33.174Z,13.9
2019-05-12T06:32:35.214Z,12.9
2019-05-12T06:33:37.453Z,13.5
2019-05-12T06:34:39.293Z,12.8
2019-05-12T06:35:45.832Z,12.7
2019-05-12T06:36:47.422Z,12.1
2019-05-12T06:38:04.128Z,12.1
2019-05-12T06:39:20.832Z,12.3
2019-05-12T06:40:25.467Z,11.6
2019-05-12T06:41:27.332Z,11.4
2019-05-12T06:42:28.914Z,12.3
2019-05-12T06:43:45.214Z,11.6
2019-05-12T06:44:58.280Z,12.2
2019-05-12T06:46:00.211Z,11.8
2019-05-12T06:47:08.910Z,11.3
2019-05-12T06:48:10.788Z,11.6
2019-05-12T06:49:18.252Z,11.5
2019-05-12T06:50:20.114Z,10.7
2019-05-12T06:51:26.626Z,11.1
2019-05-12T06:52:28.493Z,10.5
2019-05-12T06:53:34.179Z,11.7
2019-05-12T06:54:36.044Z,10.8
2019-05-12T06:55:40.430Z,11.2
2019-05-12T06:56:44.329Z,11.5
2019-05-12T06:57:51.059Z,11
2019-05-12T06:58:54.519Z,11.3
2019-05-12T06:59:56.383Z,10.8
2019-05-12T07:01:19.648Z,11.3
2019-05-12T07:02:21.323Z,11.3
2019-05-12T07:03:34.716Z,12.6
2019-05-12T07:04:56.439Z,11.2
2019-05-12T07:06:01.022Z,12.1
2019-05-12T07:07:05.438Z,11.5
2019-05-12T07:08:07.303Z,10.8
2019-05-12T07:09:27.629Z,12
2019-05-12T07:10:57.288Z,11.6
2019-05-12T07:12:07.977Z,11.1
2019-05-12T07:13:13.973Z,11.2
2019-05-12T07:14:28.591Z,11.1
2019-05-12T07:15:41.188Z,11.3
2019-05-12T07:16:45.276Z,11.3
2019-05-12T07:17:50.922Z,12.3
2019-05-12T07:18:56.953Z,11.6
2019-05-12T07:19:59.383Z,11
2019-05-12T07:21:01.244Z,10.7
2019-05-12T07:22:25.828Z,11
2019-05-12T07:23:34.732Z,11.3
2019-05-12T07:24:40.844Z,11.5
2019-05-12T07:25:51.617Z,11.3
2019-05-12T07:27:09.567Z,11.2
2019-05-12T07:28:11.151Z,11.5
2019-05-12T07:29:14.414Z,9.9
2019-05-12T07:30:16.274Z,10.7
2019-05-12T07:31:17.862Z,10.2
2019-05-12T07:32:25.235Z,10.9
2019-05-12T07:33:27.090Z,11.3
2019-05-12T07:34:43.630Z,12.1
2019-05-12T07:35:45.585Z,11.5
2019-05-12T07:36:47.469Z,10.5
2019-05-12T07:37:49.335Z,10.3
2019-05-12T07:39:04.187Z,10
2019-05-12T07:40:09.541Z,9.8
2019-05-12T07:41:14.232Z,9.5
2019-05-12T07:42:16.220Z,10.2
2019-05-12T07:43:21.622Z,10.9
2019-05-12T07:44:26.334Z,10.6
2019-05-12T07:45:40.121Z,10
2019-05-12T07:46:50.124Z,9.4
2019-05-12T07:47:53.978Z,9.6
2019-05-12T07:49:00.730Z,9.2
2019-05-12T07:50:16.015Z,8.8
2019-05-12T07:51:25.188Z,8.6
2019-05-12T07:52:34.233Z,8.1
2019-05-12T07:53:35.837Z,8.2
2019-05-12T07:54:40.501Z,8.5
2019-05-12T07:55:50.111Z,8.2
2019-05-12T07:56:53.788Z,8
2019-05-12T07:58:18.654Z,7.4
2019-05-12T07:59:21.139Z,8.2
2019-05-12T08:00:29.144Z,9.1
2019-05-12T08:01:48.695Z,9
2019-05-12T08:02:55.769Z,9
2019-05-12T08:04:04.327Z,8.2
2019-05-12T08:05:10.908Z,8
2019-05-12T08:06:21.132Z,7.6
2019-05-12T08:07:30.601Z,8.2
2019-05-12T08:08:34.887Z,8.9
2019-05-12T08:09:37.595Z,8.3
2019-05-12T08:10:39.464Z,7.8
2019-05-12T08:11:43.880Z,8.6
2019-05-12T08:12:45.759Z,8.2
2019-05-12T08:13:47.628Z,7.8
2019-05-12T08:14:49.491Z,7.8
2019-05-12T08:15:57.108Z,8.6
2019-05-12T08:17:16.772Z,9.2
2019-05-12T08:18:21.240Z,8.3
2019-05-12T08:19:29.313Z,8.3
2019-05-12T08:20:31.165Z,8.3
2019-05-12T08:21:49.400Z,8.7
2019-05-12T08:22:50.977Z,8.1
2019-05-12T08:23:54.412Z,8.2
2019-05-12T08:24:56.276Z,8.7
2019-05-12T08:25:57.867Z,9.3
2019-05-12T08:27:14.712Z,8.1
2019-05-12T08:28:39.988Z,9.1
2019-05-12T08:29:44.339Z,9.2
2019-05-12T08:30:55.459Z,9.8
2019-05-12T08:31:57.307Z,8.9
2019-05-12T08:33:10.618Z,8.8
2019-05-12T08:34:14.586Z,8.7
2019-05-12T08:35:38.087Z,8.5
2019-05-12T08:36:53.029Z,8.4
2019-05-12T08:37:59.390Z,8.5
2019-05-12T08:40:25.821Z,8.5
2019-05-12T08:41:27.685Z,7.9
2019-05-12T08:42:29.550Z,7.2
2019-05-12T08:43:31.413Z,7.8
2019-05-12T08:44:44.342Z,7.8
2019-05-12T08:45:46.216Z,8.2
2019-05-12T08:46:56.992Z,8
2019-05-12T08:47:58.856Z,8.1
2019-05-12T08:49:06.008Z,7.8
2019-05-12T08:50:07.856Z,8.1
2019-05-12T08:51:20.174Z,8
2019-05-12T08:52:24.475Z,8.6
2019-05-12T08:53:26.921Z,8.4
2019-05-12T08:54:28.506Z,8.6
2019-05-12T08:55:36.338Z,9.1
2019-05-12T08:56:38.201Z,8.4
2019-05-12T08:57:49.884Z,8.5
2019-05-12T08:58:54.699Z,8.6
2019-05-12T09:00:09.056Z,8.5
2019-05-12T09:01:10.647Z,8.2
2019-05-12T09:02:15.275Z,8.1
2019-05-12T09:03:30.682Z,7.7
2019-05-12T09:04:34.958Z,8.1
2019-05-12T09:05:39.630Z,7.5
2019-05-12T09:06:43.943Z,7.4
2019-05-12T09:07:45.827Z,7.8
2019-05-12T09:08:50.138Z,7.9
2019-05-12T09:09:53.819Z,7.7
2019-05-12T09:10:56.547Z,7.9
2019-05-12T09:11:58.617Z,8.1
2019-05-12T09:13:00.479Z,8.3
2019-05-12T09:14:06.542Z,8.5
2019-05-12T09:15:09.452Z,9.1
2019-05-12T09:16:13.199Z,9.2
2019-05-12T09:17:15.623Z,9.3
2019-05-12T09:18:19.896Z,8.2
2019-05-12T09:19:27.868Z,8.6
2019-05-12T09:20:29.734Z,8.4
2019-05-12T09:21:37.670Z,8.9
2019-05-12T09:22:39.258Z,8.1
2019-05-12T09:23:45.866Z,7.9
2019-05-12T09:24:47.455Z,8.5
2019-05-12T09:25:49.486Z,8.4
2019-05-12T09:26:53.682Z,8.3
2019-05-12T09:28:00.503Z,7.8
2019-05-12T09:29:08.174Z,7.3
2019-05-12T09:30:10.849Z,7.4
2019-05-12T09:31:25.216Z,8.2
2019-05-12T09:32:31.155Z,7.4
2019-05-12T09:33:35.844Z,7.3
2019-05-12T09:34:37.731Z,8.1
2019-05-12T09:35:40.411Z,7.6
2019-05-12T09:36:44.624Z,7.5
2019-05-12T09:37:46.489Z,7.1
2019-05-12T09:38:53.529Z,7.5
2019-05-12T09:40:05.603Z,7.2
2019-05-12T09:41:07.468Z,7.1
2019-05-12T09:42:09.334Z,7.4
2019-05-12T09:43:14.068Z,7.5
2019-05-12T09:44:26.236Z,7.8
2019-05-12T09:45:34.326Z,7
2019-05-12T09:46:38.697Z,6.9
2019-05-12T09:47:43.451Z,7.7
2019-05-12T09:48:55.238Z,7.8
2019-05-12T09:49:57.094Z,7.2
2019-05-12T09:51:08.097Z,7.4
2019-05-12T09:52:27.310Z,7.4
2019-05-12T09:53:29.166Z,7.7
2019-05-12T09:54:41.589Z,7.6
2019-05-12T09:55:45.720Z,7.4
2019-05-12T09:56:59.706Z,7.4
2019-05-12T09:58:03.768Z,7.8
2019-05-12T09:59:25.746Z,8.5
2019-05-12T10:00:37.746Z,7.5
2019-05-12T10:01:45.910Z,7.8
2019-05-12T10:03:00.823Z,8.1
2019-05-12T10:04:04.537Z,7.8
2019-05-12T10:05:06.400Z,7.7
2019-05-12T10:06:21.326Z,8.2
2019-05-12T10:07:23.337Z,7.6
2019-05-12T10:08:35.520Z,7.8
2019-05-12T10:09:39.427Z,7.5
2019-05-12T10:10:47.290Z,8
2019-05-12T10:12:03.179Z,8.1
2019-05-12T10:13:07.118Z,7.8
2019-05-12T10:14:13.823Z,8.5
2019-05-12T10:15:28.721Z,7.7
2019-05-12T10:16:30.680Z,8.5
2019-05-12T10:17:34.837Z,8.5
2019-05-12T10:18:36.702Z,8.4
2019-05-12T10:19:38.567Z,8.3
2019-05-12T10:20:40.706Z,8.2
2019-05-12T10:21:55.028Z,7.7
2019-05-12T10:23:01.021Z,7.6
2019-05-12T10:24:05.847Z,7.4
2019-05-12T10:25:07.711Z,7.2
2019-05-12T10:26:15.151Z,7
2019-05-12T10:27:27.025Z,6.9
2019-05-12T10:28:35.487Z,6.6
2019-05-12T10:29:37.353Z,6.4
2019-05-12T10:30:39.220Z,6.7
2019-05-12T10:31:41.084Z,6.3
2019-05-12T10:32:44.679Z,6.3
2019-05-12T10:33:58.303Z,6.7
2019-05-12T10:34:59.925Z,6.2
2019-05-12T10:36:09.124Z,6.7
2019-05-12T10:37:10.695Z,7
2019-05-12T10:38:14.903Z,7.1
2019-05-12T10:39:16.770Z,7.2
2019-05-12T10:40:18.644Z,7.3
2019-05-12T10:41:20.512Z,7.7
2019-05-12T10:42:24.781Z,7.3
2019-05-12T10:43:26.648Z,7.1
2019-05-12T10:44:41.112Z,6.9
2019-05-12T10:45:44.943Z,6.7
2019-05-12T10:46:46.815Z,6.7
2019-05-12T10:47:48.680Z,6.9
2019-05-12T10:48:50.556Z,7.1
2019-05-12T10:49:55.150Z,7
2019-05-12T10:50:57.014Z,6.8
2019-05-12T10:51:58.608Z,7.3
2019-05-12T10:53:00.181Z,7.5
2019-05-12T10:54:15.857Z,7.7
2019-05-12T10:55:17.753Z,8
2019-05-12T10:56:19.619Z,7.9
2019-05-12T10:57:21.482Z,7.7
2019-05-12T10:58:25.724Z,6.7
2019-05-12T10:59:48.255Z,6.5
2019-05-12T11:00:50.292Z,6.5
2019-05-12T11:01:54.575Z,6.1
2019-05-12T11:03:01.357Z,6.1
2019-05-12T11:04:11.656Z,6.8
2019-05-12T11:05:26.420Z,7.4
2019-05-12T11:06:28.286Z,6.9
2019-05-12T11:07:30.995Z,6.4
2019-05-12T11:08:34.305Z,6.9
2019-05-12T11:09:36.179Z,6.6
2019-05-12T11:10:38.046Z,6.3
2019-05-12T11:11:47.544Z,6.3
2019-05-12T11:12:49.410Z,6.5
2019-05-12T11:13:50.999Z,6.9
2019-05-12T11:14:54.846Z,6.2
2019-05-12T11:15:56.712Z,6.1
2019-05-12T11:17:09.496Z,7
2019-05-12T11:18:11.168Z,6.8
2019-05-12T11:19:14.720Z,6.5
2019-05-12T11:20:16.591Z,7
2019-05-12T11:21:18.457Z,6.4
2019-05-12T11:22:20.324Z,6.2
2019-05-12T11:23:24.345Z,6.3
2019-05-12T11:24:26.261Z,6.2
2019-05-12T11:25:28.120Z,6.6
2019-05-12T11:26:29.988Z,6.4
2019-05-12T11:27:31.868Z,6.2
2019-05-12T11:28:35.871Z,6.4
2019-05-12T11:29:49.819Z,6.3
2019-05-12T11:30:51.412Z,6.2
2019-05-12T11:31:54.852Z,6.6
2019-05-12T11:32:59.947Z,6.7
2019-05-12T11:34:01.924Z,7
2019-05-12T11:35:06.205Z,6.6
2019-05-12T11:36:07.791Z,6.5
2019-05-12T11:37:09.662Z,6.2
2019-05-12T11:38:13.860Z,6.1
2019-05-12T11:39:15.719Z,6.3
2019-05-12T11:40:17.583Z,6.4
2019-05-12T11:41:21.323Z,6.3
2019-05-12T11:42:29.633Z,6.8
2019-05-12T11:43:33.596Z,6.6
2019-05-12T11:44:35.645Z,6.1
2019-05-12T11:45:37.237Z,5.9
2019-05-12T11:46:39.106Z,5.9
2019-05-12T11:47:40.970Z,6
2019-05-12T11:48:51.047Z,6.3
2019-05-12T11:50:04.817Z,6.8
2019-05-12T11:51:11.551Z,6.5
2019-05-12T11:52:20.114Z,6.3
2019-05-12T11:53:32.296Z,6.8
2019-05-12T11:54:41.054Z,6.3
2019-05-12T11:55:50.500Z,6.1
2019-05-12T11:56:54.452Z,5.8
2019-05-12T11:58:11.547Z,5.3
2019-05-12T11:59:14.885Z,5.8
2019-05-12T12:00:16.752Z,6
2019-05-12T12:01:18.620Z,5.8
2019-05-12T12:02:30.599Z,6.2
2019-05-12T12:03:34.597Z,5.6
2019-05-12T12:04:36.463Z,5.8
2019-05-12T12:05:39.409Z,5.9
2019-05-12T12:06:40.988Z,5.8
2019-05-12T12:07:56.265Z,5.7
2019-05-12T12:08:58.140Z,6.2
2019-05-12T12:10:00.593Z,5.9
2019-05-12T12:11:04.879Z,6.1
2019-05-12T12:12:13.898Z,5.3
2019-05-12T12:13:29.994Z,6
2019-05-12T12:14:35.050Z,5.7
2019-05-12T12:15:41.402Z,5.5
2019-05-12T12:16:54.563Z,5
2019-05-12T12:17:56.540Z,5.1
2019-05-12T12:19:06.463Z,4.8
2019-05-12T12:20:08.346Z,4.7
2019-05-12T12:21:24.828Z,5.3
2019-05-12T12:22:30.708Z,5.5
2019-05-12T12:23:34.424Z,5.9
2019-05-12T12:24:39.293Z,6
2019-05-12T12:25:50.155Z,5.5
2019-05-12T12:26:54.654Z,5.6
2019-05-12T12:27:56.519Z,5.5
2019-05-12T12:28:58.386Z,5.3
2019-05-12T12:30:20.302Z,5.5
2019-05-12T12:31:29.410Z,5.7
2019-05-12T12:32:38.769Z,5.5
2019-05-12T12:33:47.587Z,5.9
2019-05-12T12:34:49.458Z,5.2
2019-05-12T12:36:01.127Z,4.8
2019-05-12T12:37:04.296Z,4.9
2019-05-12T12:38:06.223Z,5.1
2019-05-12T12:39:08.184Z,5.7
2019-05-12T12:40:10.051Z,5.6
2019-05-12T12:41:14.142Z,5.3
2019-05-12T12:42:16.009Z,5.5
2019-05-12T12:43:17.877Z,5
2019-05-12T12:44:19.754Z,5.5
2019-05-12T12:45:24.234Z,5
2019-05-12T12:46:26.101Z,5.2
2019-05-12T12:47:27.690Z,4.6
2019-05-12T12:48:30.938Z,5
2019-05-12T12:49:35.025Z,5.4
2019-05-12T12:50:41.415Z,5.5
2019-05-12T12:51:45.895Z,5.3
2019-05-12T12:52:49.868Z,5.4
2019-05-12T12:53:53.905Z,5.3
2019-05-12T12:55:08.474Z,5.6
2019-05-12T12:56:10.412Z,5
2019-05-12T12:57:25.214Z,4.9
2019-05-12T12:58:34.961Z,4.6
2019-05-12T12:59:36.831Z,4.7
2019-05-12T13:00:56.828Z,5
2019-05-12T13:02:09.352Z,5.2
2019-05-12T13:03:11.290Z,5.5
2019-05-12T13:04:15.716Z,5.4
2019-05-12T13:05:17.582Z,5.2
2019-05-12T13:06:19.451Z,5.8
2019-05-12T13:07:21.321Z,6.1
2019-05-12T13:08:25.775Z,5.9
2019-05-12T13:09:27.366Z,6.1
2019-05-12T13:10:29.231Z,6.4
2019-05-12T13:11:35.719Z,6
2019-05-12T13:12:37.307Z,5.9
2019-05-12T13:13:39.175Z,6
2019-05-12T13:14:41.041Z,5.6
2019-05-12T13:15:45.047Z,6.4
2019-05-12T13:16:56.265Z,5.8
2019-05-12T13:17:58.194Z,5.8
2019-05-12T13:19:17.175Z,6.1
2019-05-12T13:20:19.130Z,6.3
2019-05-12T13:21:20.711Z,5.8
2019-05-12T13:22:24.485Z,6.6
2019-05-12T13:23:41.813Z,5.9
2019-05-12T13:24:44.972Z,5.9
2019-05-12T13:25:54.959Z,6.3
2019-05-12T13:26:56.823Z,5.8
2019-05-12T13:28:16.534Z,6.3
2019-05-12T13:29:39.515Z,6.3
2019-05-12T13:30:49.961Z,7
2019-05-12T13:31:53.739Z,6.3
2019-05-12T13:32:55.690Z,6.1
2019-05-12T13:33:57.633Z,6.2
2019-05-12T13:34:59.496Z,6.4
2019-05-12T13:36:01.373Z,6.2
2019-05-12T13:37:19.902Z,6.5
2019-05-12T13:38:24.246Z,6.2
2019-05-12T13:39:26.113Z,6.4
2019-05-12T13:40:39.395Z,6.1
2019-05-12T13:41:43.603Z,5.8
2019-05-12T13:42:45.611Z,5.9
2019-05-12T13:44:00.456Z,5.7
2019-05-12T13:45:04.613Z,5.5
2019-05-12T13:46:06.203Z,5.7
2019-05-12T13:47:08.070Z,5.9
2019-05-12T13:48:20.461Z,5.2
2019-05-12T13:49:24.930Z,5.2
2019-05-12T13:50:31.482Z,5.4
2019-05-12T13:51:34.361Z,5.2
2019-05-12T13:52:36.229Z,5
2019-05-12T13:53:50.265Z,5.4
2019-05-12T13:54:52.241Z,5.4
2019-05-12T13:55:55.393Z,5.1
2019-05-12T13:56:57.259Z,4.9
2019-05-12T13:57:58.418Z,5.1
2019-05-12T13:59:00.012Z,5.3
2019-05-12T14:00:13.490Z,5.3
2019-05-12T14:01:21.552Z,4.7
2019-05-12T14:02:26.193Z,4.7
2019-05-12T14:03:29.022Z,4.7
2019-05-12T14:04:30.617Z,4.4
2019-05-12T14:05:32.208Z,4.3
2019-05-12T14:06:38.910Z,4.9
2019-05-12T14:07:40.779Z,4.8
2019-05-12T14:08:45.598Z,4.7
2019-05-12T14:09:47.515Z,5.1
2019-05-12T14:11:00.261Z,4.5
2019-05-12T14:12:04.135Z,4.4
2019-05-12T14:13:05.653Z,4.5
2019-05-12T14:14:16.047Z,4.7
2019-05-12T14:15:17.913Z,5.1
2019-05-12T14:16:19.781Z,4.9
2019-05-12T14:17:23.926Z,4.8
2019-05-12T14:18:25.790Z,5
2019-05-12T14:19:37.292Z,5.1
2019-05-12T14:20:39.220Z,4.9
2019-05-12T14:21:43.137Z,5.2
2019-05-12T14:22:45.897Z,5
2019-05-12T14:23:47.474Z,4.9
2019-05-12T14:24:49.343Z,5.1
2019-05-12T14:25:50.935Z,5.6
2019-05-12T14:26:55.563Z,5.3
2019-05-12T14:28:09.520Z,5.8
2019-05-12T14:29:13.642Z,5.7
2019-05-12T14:30:15.782Z,5.8
2019-05-12T14:31:43.984Z,5.9
2019-05-12T14:33:00.201Z,6
2019-05-12T14:34:04.171Z,5.6
2019-05-12T14:35:06.171Z,5.9
2019-05-12T14:36:08.038Z,6.1
2019-05-12T14:37:18.616Z,6.1
2019-05-12T14:38:30.336Z,5.9
2019-05-12T14:39:34.326Z,6
2019-05-12T14:40:36.280Z,5.5
2019-05-12T14:41:38.148Z,5.6
2019-05-12T14:42:55.391Z,5.7
2019-05-12T14:44:04.237Z,5.9
2019-05-12T14:45:06.100Z,5.9
2019-05-12T14:46:13.330Z,5.8
2019-05-12T14:47:30.172Z,5.6